Airfield :
LOGIN :

Register | Disclaimer

   EN    FR    IT 

 










Legend :    VFR   Marginal VFR   IFR   Intensive IFR   Very Intensive IFR
Visi :
Ceiling :
>= 8 km
>= 3000ft
5 to 8 km
1000 to 3000 ft
1500m to 5 km
500 to 1000 ft
800 to 1500m
200 to 500 ft
< 800m
< 200 ft
Symbols :   Thunderstorms  Fog  Heavy snow  Heavy precipitations  Wind > 20 kt
SIGMETs :     Misc.  Thunderstorms  Icing  Turbulence  Mountain Waves  Volcanic Ashes






- Airport Elevation : 2001 ft
- IATA code : MAD


LEMD - Madrid

CURRENT METAR :
  • 161800Z 21006KT 170V310 CAVOK 16/08 Q1026 NOSIG

EXPIRED METARs :
  • 161730Z 22008KT 190V250 CAVOK 16/07 Q1026 NOSIG
  • 161700Z 21009KT 190V250 CAVOK 17/07 Q1026 NOSIG
  • 161630Z 22011KT 200V290 CAVOK 18/06 Q1025 NOSIG
  • 161600Z 23010KT CAVOK 18/06 Q1025 NOSIG
  • 161530Z 21009KT 180V240 9999 FEW040 18/08 Q1025 NOSIG

TAF TAF LEMD
Valid from the 16 at 18:00 until the 18 at 00:00 UTC


161700Z 1618/1724 VRB04KT CAVOK TX16/1715Z TN03/1706Z
PROB40
TEMPO 1618/1619 22010KT
PROB40
TEMPO 1702/1711 3000 BR BKN005
PROB40
TEMPO 1704/1710 0400 FG VV002
TEMPO 1709/1713 BKN012
PROB40
TEMPO 1720/1724 02010KT



MET'MAP, your aeronautical weather chart ! - Copyright ORBIFLY December 2007 - Disclaimer

ORBIFLY MET'MAP TEAM :

Programming & Development : Alexandra Zaïnal
Concept & original design : Baudouin d'Aumeries
Assistance for programming : Marc-Olivier Méhu
Technical & hardware support : Manuel Goepfert

Contact : metmap@orbifly.com




SOURCES & CREDITS :

   NOAA